Time;durP1;ratioP1;P1;durP2;ratioP2;P2;SDS_P1;SDS_P2;PMS_P1;PMS_P2;Temp;Humidity;BMP_temperature;BMP_pressure;BME280_temperature;BME280_humidity;BME280_pressure;Samples;Min_cycle;Max_cycle;Signal;HPM_P1;HPM_P2
2021/01/13 00:02:09;;;;;;;288.25;122.32;;;0.70;99.90;;;;;;5077398;28;20029;-80
2021/01/13 00:04:36;;;;;;;285.75;122.13;;;0.70;99.90;;;;;;5076801;28;20071;-80
2021/01/13 00:07:02;;;;;;;293.42;129.93;;;0.60;99.90;;;;;;5059113;28;20035;-80
2021/01/13 00:09:28;;;;;;;307.67;136.10;;;0.60;99.90;;;;;;5077038;28;20039;-80
2021/01/13 00:11:57;;;;;;;298.25;133.40;;;0.70;99.90;;;;;;5076876;28;20025;-80
2021/01/13 00:14:24;;;;;;;316.38;138.50;;;0.60;99.90;;;;;;5076972;28;20029;-80
2021/01/13 00:16:51;;;;;;;333.63;143.57;;;0.60;99.90;;;;;;5076864;28;20122;-80
2021/01/13 00:19:17;;;;;;;311.55;136.55;;;0.60;99.90;;;;;;5076686;28;20025;-79
2021/01/13 00:22:00;;;;;;;297.48;127.10;;;0.50;99.90;;;;;;5076907;28;20029;-80
2021/01/13 00:24:26;;;;;;;284.63;120.95;;;0.50;99.90;;;;;;5077042;28;20024;-80
2021/01/13 00:27:02;;;;;;;439.27;166.55;;;0.50;99.90;;;;;;5076456;28;20489;-80
2021/01/13 00:29:28;;;;;;;928.55;212.43;;;0.50;99.90;;;;;;5076733;28;20039;-80
2021/01/13 00:31:58;;;;;;;287.88;119.25;;;0.50;99.90;;;;;;5076465;28;20379;-80
2021/01/13 00:34:25;;;;;;;304.13;121.05;;;0.50;99.90;;;;;;5076322;28;20375;-80
2021/01/13 00:36:51;;;;;;;382.67;134.68;;;0.40;99.90;;;;;;5076527;28;20024;-80
2021/01/13 00:39:17;;;;;;;329.75;139.10;;;0.40;99.90;;;;;;5076614;28;20379;-81
2021/01/13 00:41:43;;;;;;;335.83;134.05;;;0.40;99.90;;;;;;5076657;28;20060;-81
2021/01/13 00:44:09;;;;;;;266.63;110.72;;;0.30;99.90;;;;;;5076680;28;20451;-80
2021/01/13 00:46:36;;;;;;;232.88;100.40;;;0.30;99.90;;;;;;5076879;28;20031;-80
2021/01/13 00:49:03;;;;;;;186.32;88.22;;;0.30;99.90;;;;;;5076500;28;20082;-80
2021/01/13 00:51:36;;;;;;;221.52;87.30;;;0.30;99.90;;;;;;5077027;28;20021;-79
2021/01/13 00:54:03;;;;;;;235.25;84.43;;;0.10;99.90;;;;;;5076665;28;20013;-79
2021/01/13 00:56:29;;;;;;;173.15;75.35;;;0.10;99.90;;;;;;5058696;28;20036;-79
2021/01/13 00:58:57;;;;;;;160.25;69.85;;;0.10;99.90;;;;;;5076455;28;20024;-79
2021/01/13 01:01:25;;;;;;;161.68;70.00;;;0.00;99.90;;;;;;5076714;28;20033;-79
2021/01/13 01:03:52;;;;;;;184.32;77.75;;;0.00;99.90;;;;;;5057044;28;20033;-80
2021/01/13 01:06:18;;;;;;;164.93;72.03;;;-0.10;99.90;;;;;;5076268;28;20025;-80
2021/01/13 01:08:44;;;;;;;178.70;78.60;;;-0.10;99.90;;;;;;5076211;28;20077;-80
2021/01/13 01:11:11;;;;;;;202.00;84.07;;;-0.10;99.90;;;;;;5076321;28;20035;-80
2021/01/13 01:13:37;;;;;;;182.93;80.22;;;-0.10;99.90;;;;;;5076332;28;20468;-80
2021/01/13 01:16:03;;;;;;;204.02;88.68;;;-0.10;99.90;;;;;;5075950;28;20480;-80
2021/01/13 01:18:29;;;;;;;180.30;83.40;;;-0.10;99.90;;;;;;5076125;28;20042;-79
2021/01/13 01:20:55;;;;;;;157.50;75.28;;;-0.10;99.90;;;;;;5076180;28;20539;-79
2021/01/13 01:23:21;;;;;;;151.98;74.95;;;-0.10;99.90;;;;;;5076066;28;20020;-79
2021/01/13 01:25:46;;;;;;;133.25;67.72;;;-0.10;99.90;;;;;;5075772;28;20062;-80
2021/01/13 01:28:12;;;;;;;136.32;66.57;;;-0.20;99.90;;;;;;5075968;28;20471;-80
2021/01/13 01:30:38;;;;;;;159.25;74.53;;;-0.30;99.90;;;;;;5075526;28;20072;-81
2021/01/13 01:33:04;;;;;;;154.98;75.05;;;-0.20;99.90;;;;;;5075674;28;20032;-80
2021/01/13 01:35:29;;;;;;;156.48;75.70;;;-0.20;99.90;;;;;;5076399;28;20069;-79
2021/01/13 01:37:55;;;;;;;164.07;78.18;;;-0.20;99.90;;;;;;5057521;28;20024;-79
2021/01/13 01:40:21;;;;;;;201.82;82.43;;;-0.20;99.90;;;;;;5057482;28;20021;-79
2021/01/13 01:42:52;;;;;;;140.43;68.32;;;-0.20;99.90;;;;;;5075416;28;20448;-79
2021/01/13 01:45:27;;;;;;;147.90;68.72;;;-0.20;99.90;;;;;;5075788;28;20430;-79
2021/01/13 01:48:01;;;;;;;146.32;66.68;;;-0.20;99.90;;;;;;5075880;28;20024;-79
2021/01/13 01:50:39;;;;;;;144.90;67.57;;;-0.20;99.90;;;;;;5075741;28;20031;-79
2021/01/13 01:53:17;;;;;;;142.13;65.68;;;-0.20;99.90;;;;;;5075245;28;20028;-79
2021/01/13 01:56:09;;;;;;;133.35;60.55;;;-0.20;99.90;;;;;;5075470;28;20028;-80
2021/01/13 01:58:36;;;;;;;126.07;54.45;;;-0.20;99.90;;;;;;5024485;28;20380;-80
2021/01/13 02:01:05;;;;;;;119.75;55.72;;;-0.10;99.90;;;;;;5075143;28;20028;-80
2021/01/13 02:03:48;;;;;;;129.40;56.10;;;-0.20;99.90;;;;;;5075153;28;20027;-79
2021/01/13 02:06:17;;;;;;;125.28;59.92;;;-0.20;99.90;;;;;;5075046;28;20025;-79
2021/01/13 02:08:44;;;;;;;120.40;57.35;;;-0.20;99.90;;;;;;5075017;28;20021;-79
2021/01/13 02:11:17;;;;;;;121.50;53.83;;;-0.20;99.90;;;;;;5056873;28;20111;-80
2021/01/13 02:13:47;;;;;;;113.95;51.35;;;-0.20;99.90;;;;;;5056860;28;20035;-80
2021/01/13 02:16:15;;;;;;;140.70;56.53;;;-0.10;99.90;;;;;;5074987;28;20021;-80
2021/01/13 02:18:43;;;;;;;138.15;62.10;;;-0.10;99.90;;;;;;5075045;28;20051;-80
2021/01/13 02:21:15;;;;;;;134.43;62.55;;;-0.10;99.90;;;;;;5075352;28;20049;-80
2021/01/13 02:23:47;;;;;;;135.27;57.42;;;-0.10;99.90;;;;;;5074659;28;20017;-80
2021/01/13 02:26:33;;;;;;;126.60;58.95;;;-0.10;99.90;;;;;;5074463;28;20021;-80
2021/01/13 02:29:11;;;;;;;120.18;54.30;;;0.00;99.90;;;;;;5074799;28;20021;-80
2021/01/13 02:31:56;;;;;;;121.18;55.63;;;0.00;99.90;;;;;;5035223;28;20037;-80
2021/01/13 02:34:52;;;;;;;124.95;54.08;;;0.00;99.90;;;;;;5033244;28;20024;-80
2021/01/13 02:37:43;;;;;;;154.48;60.00;;;0.00;99.90;;;;;;5034412;28;20025;-80
2021/01/13 02:40:14;;;;;;;142.82;59.20;;;0.00;99.90;;;;;;5033968;28;20079;-80
2021/01/13 02:42:48;;;;;;;;;;;0.00;99.90;;;;;;5034823;28;20064;-80
2021/01/13 02:45:18;;;;;;;136.15;58.50;;;0.10;99.90;;;;;;5034731;28;19905;-80
2021/01/13 02:48:09;;;;;;;127.28;55.35;;;0.10;99.90;;;;;;5034921;28;20032;-80
2021/01/13 02:50:41;;;;;;;119.65;55.67;;;0.00;99.90;;;;;;5034202;28;20038;-80
2021/01/13 02:53:09;;;;;;;116.72;54.33;;;0.00;99.90;;;;;;5032888;28;20364;-80
2021/01/13 02:55:41;;;;;;;136.45;59.45;;;0.00;99.90;;;;;;5034186;28;20017;-80
2021/01/13 02:58:10;;;;;;;133.38;59.95;;;0.00;99.90;;;;;;5034116;28;20014;-80
2021/01/13 03:00:37;;;;;;;132.48;58.88;;;0.00;99.90;;;;;;5033027;28;20037;-80
2021/01/13 03:03:04;;;;;;;121.22;52.90;;;0.00;99.90;;;;;;5033914;28;20052;-79
2021/01/13 03:05:30;;;;;;;119.03;52.85;;;0.00;99.90;;;;;;5033991;28;20091;-80
2021/01/13 03:07:58;;;;;;;121.95;53.40;;;0.00;99.90;;;;;;5034160;28;20028;-80
2021/01/13 03:10:26;;;;;;;120.93;54.90;;;0.00;99.90;;;;;;5033943;28;20021;-81
2021/01/13 03:13:10;;;;;;;121.65;53.13;;;0.00;99.90;;;;;;5033847;28;20029;-80
2021/01/13 03:15:37;;;;;;;204.75;62.97;;;0.00;99.90;;;;;;5032433;28;20022;-79
2021/01/13 03:18:43;;;;;;;143.60;62.17;;;0.10;99.90;;;;;;5033804;28;20373;-80
2021/01/13 03:21:22;;;;;;;127.75;55.28;;;0.10;99.90;;;;;;4990196;28;20057;-81
2021/01/13 03:24:39;;;;;;;123.63;56.20;;;0.20;99.90;;;;;;5033736;28;20040;-81
2021/01/13 03:27:06;;;;;;;128.73;56.40;;;0.20;99.90;;;;;;4952974;28;20023;-81
2021/01/13 03:29:35;;;;;;;120.88;54.47;;;0.20;99.90;;;;;;5034888;28;20031;-80
2021/01/13 03:32:18;;;;;;;89.70;41.70;;;0.20;99.90;;;;;;5073567;28;20430;-80
2021/01/13 03:34:53;;;;;;;124.75;54.28;;;0.20;99.90;;;;;;5073616;28;20483;-80
2021/01/13 03:37:26;;;;;;;125.03;53.53;;;0.20;99.90;;;;;;5073523;28;20039;-80
2021/01/13 03:39:54;;;;;;;116.10;50.42;;;0.20;99.90;;;;;;5073374;28;20024;-80
2021/01/13 03:42:22;;;;;;;122.68;54.10;;;0.30;99.90;;;;;;5073776;28;20054;-80
2021/01/13 03:44:49;;;;;;;130.98;54.67;;;0.30;99.90;;;;;;5055253;28;20419;-80
2021/01/13 03:47:24;;;;;;;124.45;53.35;;;0.30;99.90;;;;;;5073556;28;20464;-80
2021/01/13 03:50:11;;;;;;;130.07;54.85;;;0.30;99.90;;;;;;5073380;28;20380;-80
2021/01/13 03:52:48;;;;;;;125.10;57.92;;;0.30;99.90;;;;;;5073306;28;20060;-80
2021/01/13 03:55:16;;;;;;;123.47;55.20;;;0.30;99.90;;;;;;5073681;28;20050;-80
2021/01/13 03:58:02;;;;;;;151.30;59.00;;;0.30;99.90;;;;;;5073281;28;20024;-80
2021/01/13 04:00:31;;;;;;;132.35;58.20;;;0.30;99.90;;;;;;5073318;28;20016;-80
2021/01/13 04:03:25;;;;;;;155.63;67.82;;;0.30;99.90;;;;;;5073394;28;20028;-80
2021/01/13 04:06:04;;;;;;;136.93;59.40;;;0.30;99.90;;;;;;5073284;28;20103;-80
2021/01/13 04:08:35;;;;;;;149.68;60.03;;;0.30;99.90;;;;;;5073530;28;20028;-80
2021/01/13 04:11:02;;;;;;;176.90;61.92;;;0.30;99.90;;;;;;5073206;28;20017;-80
2021/01/13 04:13:34;;;;;;;121.47;53.00;;;0.30;99.90;;;;;;5073303;28;20017;-80
2021/01/13 04:16:00;;;;;;;133.55;56.03;;;0.30;99.90;;;;;;5073501;28;20129;-80
2021/01/13 04:18:26;;;;;;;142.63;61.00;;;0.30;99.90;;;;;;5072985;28;20028;-80
2021/01/13 04:20:52;;;;;;;135.23;59.55;;;0.30;99.90;;;;;;5055154;28;20021;-81
2021/01/13 04:23:18;;;;;;;133.77;56.47;;;0.30;99.90;;;;;;5073082;28;20025;-81
2021/01/13 04:25:44;;;;;;;143.65;57.85;;;0.30;99.90;;;;;;5073037;28;20349;-81
2021/01/13 04:28:11;;;;;;;133.50;56.85;;;0.30;99.90;;;;;;5072992;28;20032;-81
2021/01/13 04:30:37;;;;;;;130.40;54.38;;;0.30;99.90;;;;;;5072700;28;20052;-81
2021/01/13 04:33:03;;;;;;;114.88;51.70;;;0.30;99.90;;;;;;5072889;28;20067;-81
2021/01/13 04:35:29;;;;;;;129.35;55.45;;;0.30;99.90;;;;;;5055035;28;20399;-81
2021/01/13 04:37:56;;;;;;;129.70;56.97;;;0.20;99.90;;;;;;5074377;28;20023;-81
2021/01/13 04:40:33;;;;;;;129.43;57.22;;;0.20;99.90;;;;;;5076725;28;20152;-80
2021/01/13 04:43:07;;;;;;;137.65;59.28;;;0.20;99.90;;;;;;5076893;28;20510;-79
2021/01/13 04:45:47;;;;;;;128.73;55.47;;;0.20;99.90;;;;;;5076504;28;20106;-80
2021/01/13 04:48:20;;;;;;;123.57;54.80;;;0.20;99.90;;;;;;5076208;28;20115;-80
2021/01/13 04:50:48;;;;;;;140.45;59.17;;;0.10;99.90;;;;;;5076328;28;20024;-80
2021/01/13 04:53:17;;;;;;;133.00;56.30;;;0.20;99.90;;;;;;5076298;28;20021;-80
2021/01/13 04:56:03;;;;;;;161.23;64.03;;;0.20;99.90;;;;;;5076381;28;20024;-80
2021/01/13 04:59:06;;;;;;;145.63;61.35;;;0.20;99.90;;;;;;5076315;28;20025;-80
2021/01/13 05:01:35;;;;;;;181.32;63.85;;;0.30;99.90;;;;;;5076568;28;20075;-80
2021/01/13 05:04:07;;;;;;;145.30;60.13;;;0.30;99.90;;;;;;5076117;28;20048;-81
2021/01/13 05:06:46;;;;;;;132.80;54.05;;;0.30;99.90;;;;;;5076029;28;20036;-80
2021/01/13 05:09:13;;;;;;;266.83;99.07;;;0.40;99.90;;;;;;5076022;28;20111;-80
2021/01/13 05:11:47;;;;;;;130.63;55.05;;;0.30;99.90;;;;;;5076317;28;20032;-80
2021/01/13 05:14:14;;;;;;;121.13;51.97;;;0.30;99.90;;;;;;5058178;28;20500;-80
2021/01/13 05:16:49;;;;;;;134.20;61.25;;;0.40;99.90;;;;;;5076576;28;20465;-81
2021/01/13 05:20:01;;;;;;;144.75;63.05;;;0.30;99.90;;;;;;5058227;28;20021;-80
2021/01/13 05:22:31;;;;;;;162.85;69.40;;;0.40;99.90;;;;;;5057807;28;20020;-80
2021/01/13 05:25:00;;;;;;;;;;;0.40;99.90;;;;;;5076613;28;20043;-81
2021/01/13 05:27:29;;;;;;;359.67;115.53;;;0.40;99.90;;;;;;5075881;28;19940;-81
2021/01/13 05:30:00;;;;;;;192.45;77.88;;;0.30;99.90;;;;;;5057606;28;20098;-81
2021/01/13 05:32:27;;;;;;;149.93;66.45;;;0.40;99.90;;;;;;5075468;28;20029;-81
2021/01/13 05:34:57;;;;;;;144.57;65.28;;;0.40;99.90;;;;;;5075836;28;20455;-80
2021/01/13 05:37:52;;;;;;;149.43;66.15;;;0.50;99.90;;;;;;5075786;28;20024;-80
2021/01/13 05:40:18;;;;;;;159.25;67.43;;;0.50;99.90;;;;;;5074916;28;20044;-80
2021/01/13 05:42:45;;;;;;;156.35;77.63;;;0.50;99.90;;;;;;5076030;28;20025;-80
2021/01/13 05:45:14;;;;;;;172.05;75.65;;;0.50;99.90;;;;;;5075709;28;20024;-80
2021/01/13 05:47:56;;;;;;;193.57;88.18;;;0.50;99.90;;;;;;5075369;28;20029;-80
2021/01/13 05:50:24;;;;;;;189.80;91.55;;;0.50;99.90;;;;;;5074795;28;20024;-80
2021/01/13 05:52:52;;;;;;;192.00;93.53;;;0.60;99.90;;;;;;5075319;28;20379;-80
2021/01/13 05:55:19;;;;;;;196.45;92.45;;;0.60;99.90;;;;;;5057865;28;20107;-80
2021/01/13 05:57:57;;;;;;;230.65;91.15;;;0.60;99.90;;;;;;5075271;28;20042;-80
2021/01/13 06:00:24;;;;;;;273.50;102.57;;;0.60;99.90;;;;;;5057260;28;20029;-80
2021/01/13 06:03:04;;;;;;;264.00;109.57;;;0.60;99.90;;;;;;5075142;28;20021;-80
2021/01/13 06:05:32;;;;;;;288.80;117.00;;;0.60;99.90;;;;;;5075633;28;20046;-80
2021/01/13 06:08:03;;;;;;;299.38;127.13;;;0.60;99.90;;;;;;5075036;28;20032;-80
2021/01/13 06:10:34;;;;;;;371.05;157.60;;;0.70;99.90;;;;;;5074795;28;20422;-80
2021/01/13 06:13:02;;;;;;;324.45;147.65;;;0.70;99.90;;;;;;5074839;28;20103;-80
2021/01/13 06:15:29;;;;;;;287.65;129.63;;;0.70;99.90;;;;;;5075176;28;20532;-80
2021/01/13 06:17:57;;;;;;;288.17;128.20;;;0.70;99.90;;;;;;5075128;28;20515;-80
2021/01/13 06:20:27;;;;;;;282.67;122.32;;;0.70;99.90;;;;;;5075055;28;20430;-80
2021/01/13 06:22:55;;;;;;;275.92;121.75;;;0.70;99.90;;;;;;5074599;28;20063;-80
2021/01/13 06:25:26;;;;;;;239.80;112.75;;;0.70;99.90;;;;;;5074637;28;20056;-80
2021/01/13 06:27:58;;;;;;;225.48;105.20;;;0.70;99.90;;;;;;5074616;28;20021;-80
2021/01/13 06:30:28;;;;;;;240.68;101.57;;;0.70;99.90;;;;;;5074553;28;20040;-80
2021/01/13 06:33:05;;;;;;;226.93;106.80;;;0.80;99.90;;;;;;5074956;28;20033;-80
2021/01/13 06:35:42;;;;;;;256.17;116.53;;;0.80;99.90;;;;;;5074540;28;20021;-80
2021/01/13 06:38:10;;;;;;;250.77;120.25;;;0.70;99.90;;;;;;5074356;28;20020;-80
2021/01/13 06:40:37;;;;;;;271.92;127.25;;;0.70;99.90;;;;;;5074360;28;20025;-80
2021/01/13 06:43:13;;;;;;;292.70;137.75;;;0.70;99.90;;;;;;5074786;28;20103;-80
2021/01/13 06:45:39;;;;;;;287.92;132.55;;;0.60;99.90;;;;;;5074266;28;20384;-80
2021/01/13 06:48:06;;;;;;;254.32;125.28;;;0.60;99.90;;;;;;5057016;28;20028;-80
2021/01/13 06:50:33;;;;;;;239.93;117.47;;;0.50;99.90;;;;;;5056250;28;20036;-80
2021/01/13 06:52:59;;;;;;;313.20;143.98;;;0.50;99.90;;;;;;5074034;28;20025;-80
2021/01/13 06:55:32;;;;;;;265.00;122.72;;;0.60;99.90;;;;;;5074058;28;20468;-81
2021/01/13 06:58:27;;;;;;;288.30;127.95;;;0.60;99.90;;;;;;5074095;28;20031;-80
2021/01/13 07:01:01;;;;;;;348.52;154.23;;;0.60;99.90;;;;;;5051826;28;20036;-81
2021/01/13 07:03:32;;;;;;;232.90;103.45;;;0.60;99.90;;;;;;5073917;28;20091;-82
2021/01/13 07:06:01;;;;;;;191.18;82.93;;;0.60;99.90;;;;;;5073949;28;20025;-81
2021/01/13 07:08:28;;;;;;;175.85;82.30;;;0.50;99.90;;;;;;5055926;28;20064;-81
2021/01/13 07:11:05;;;;;;;203.13;95.00;;;0.50;99.90;;;;;;5073911;28;20040;-81
2021/01/13 07:13:40;;;;;;;185.57;89.75;;;0.50;99.90;;;;;;5073848;28;20024;-81
2021/01/13 07:16:07;;;;;;;190.23;97.60;;;0.50;99.90;;;;;;5074044;28;20434;-81
2021/01/13 07:18:35;;;;;;;329.48;177.77;;;0.60;99.90;;;;;;5073951;28;20020;-82
2021/01/13 07:21:11;;;;;;;332.13;181.90;;;0.60;99.90;;;;;;5055661;28;20021;-79
2021/01/13 07:23:40;;;;;;;214.43;105.00;;;0.60;99.90;;;;;;5073692;28;20017;-79
2021/01/13 07:26:06;;;;;;;174.68;77.63;;;0.60;99.90;;;;;;5073847;28;20021;-81
2021/01/13 07:28:34;;;;;;;209.85;92.32;;;0.70;99.90;;;;;;5073680;28;20025;-80
2021/01/13 07:31:01;;;;;;;196.52;92.15;;;0.70;99.90;;;;;;5073619;28;20044;-80
2021/01/13 07:33:36;;;;;;;236.55;103.63;;;0.70;99.90;;;;;;5073578;28;20039;-80
2021/01/13 07:36:02;;;;;;;266.73;128.13;;;0.70;99.90;;;;;;5073538;28;20094;-80
2021/01/13 07:38:32;;;;;;;206.27;98.70;;;0.80;99.90;;;;;;5073553;28;20394;-80
2021/01/13 07:40:59;;;;;;;184.93;93.87;;;0.70;99.90;;;;;;5072910;28;20468;-77
2021/01/13 07:43:59;;;;;;;188.98;93.28;;;0.70;99.90;;;;;;5054585;28;20287;-79
2021/01/13 07:46:30;;;;;;;250.23;113.75;;;0.70;99.90;;;;;;5072850;28;20475;-79
2021/01/13 07:49:13;;;;;;;299.33;140.38;;;0.70;99.90;;;;;;5073438;28;20032;-79
2021/01/13 07:52:01;;;;;;;258.17;118.22;;;0.70;99.90;;;;;;5073289;28;20379;-80
2021/01/13 07:54:34;;;;;;;301.73;130.50;;;0.80;99.90;;;;;;5073447;28;20430;-80
2021/01/13 07:57:08;;;;;;;186.35;88.80;;;0.70;99.90;;;;;;5072271;28;20025;-78
2021/01/13 07:59:45;;;;;;;212.88;99.07;;;1.40;99.90;;;;;;5073079;28;20025;-77
2021/01/13 08:02:47;;;;;;;219.63;99.30;;;1.90;99.90;;;;;;5064328;28;20021;-77
2021/01/13 08:05:34;;;;;;;205.60;84.40;;;2.20;99.90;;;;;;5062991;28;20035;-79
2021/01/13 08:08:10;;;;;;;197.18;84.85;;;2.50;99.90;;;;;;5061721;28;20099;-77
2021/01/13 08:10:40;;;;;;;271.05;110.85;;;2.60;99.90;;;;;;5062201;28;20079;-77
2021/01/13 08:13:48;;;;;;;175.68;79.70;;;2.70;99.90;;;;;;5062227;28;20041;-76
2021/01/13 08:16:36;;;;;;;214.85;78.75;;;3.00;99.90;;;;;;5043376;28;20028;-77
2021/01/13 08:19:40;;;;;;;169.60;84.45;;;3.30;99.90;;;;;;5037602;28;20029;-77
2021/01/13 08:22:12;;;;;;;182.95;94.57;;;2.90;99.90;;;;;;5055814;28;20522;-78
2021/01/13 08:24:59;;;;;;;192.73;102.20;;;2.40;99.90;;;;;;5055364;28;20111;-77
2021/01/13 08:27:27;;;;;;;181.13;85.05;;;2.00;99.90;;;;;;5055558;28;20643;-77
2021/01/13 08:29:57;;;;;;;184.63;89.80;;;1.90;99.90;;;;;;5037468;28;20049;-78
2021/01/13 08:32:40;;;;;;;144.00;71.80;;;1.80;99.90;;;;;;5055206;28;20033;-77
2021/01/13 08:35:07;;;;;;;147.52;75.57;;;1.70;99.90;;;;;;5055101;28;20025;-77
2021/01/13 08:37:34;;;;;;;131.48;70.85;;;1.70;99.90;;;;;;5055431;28;20086;-77
2021/01/13 08:40:27;;;;;;;154.43;77.13;;;1.70;99.90;;;;;;5055350;28;20120;-77
2021/01/13 08:43:07;;;;;;;150.20;73.97;;;1.70;99.90;;;;;;5045029;28;20040;-77
2021/01/13 08:45:36;;;;;;;141.63;68.15;;;1.70;99.90;;;;;;5054968;28;20028;-76
2021/01/13 08:48:07;;;;;;;158.57;71.57;;;1.70;99.90;;;;;;5055142;28;20029;-77
2021/01/13 08:50:34;;;;;;;141.75;69.30;;;1.70;99.90;;;;;;5059764;28;20033;-77
2021/01/13 08:53:03;;;;;;;144.40;66.32;;;1.80;99.90;;;;;;5075076;28;20024;-77
2021/01/13 08:55:29;;;;;;;148.50;66.15;;;1.80;99.90;;;;;;5075344;28;20017;-77
2021/01/13 08:58:04;;;;;;;166.65;71.00;;;1.80;99.90;;;;;;5075037;28;20032;-79
2021/01/13 09:00:31;;;;;;;164.23;72.25;;;1.80;99.90;;;;;;5062777;28;20029;-77
2021/01/13 09:03:06;;;;;;;147.20;70.32;;;2.30;99.90;;;;;;5055691;28;20047;-78
2021/01/13 09:05:37;;;;;;;147.93;68.25;;;2.20;99.90;;;;;;5095118;28;20107;-78
2021/01/13 09:08:05;;;;;;;156.82;73.70;;;2.10;99.90;;;;;;5095780;28;20024;-78
2021/01/13 09:10:47;;;;;;;146.52;75.70;;;2.10;99.90;;;;;;5095804;28;20073;-78
2021/01/13 09:13:40;;;;;;;144.68;69.97;;;2.20;99.90;;;;;;5077750;28;20032;-78
2021/01/13 09:16:24;;;;;;;146.13;70.88;;;2.20;99.90;;;;;;5095788;28;20042;-78
2021/01/13 09:19:00;;;;;;;159.55;80.32;;;2.20;99.90;;;;;;5077677;28;20027;-78
2021/01/13 09:21:31;;;;;;;153.52;78.45;;;2.20;99.90;;;;;;5095712;28;20073;-78
2021/01/13 09:23:58;;;;;;;143.30;73.50;;;2.30;99.90;;;;;;5094562;28;20028;-78
2021/01/13 09:26:31;;;;;;;126.00;64.35;;;2.30;99.90;;;;;;5095145;28;20103;-78
2021/01/13 09:29:10;;;;;;;136.18;71.38;;;2.40;99.90;;;;;;5096065;28;20521;-79
2021/01/13 09:31:38;;;;;;;140.50;67.90;;;2.40;99.90;;;;;;5095897;28;20093;-79
2021/01/13 09:34:07;;;;;;;146.07;72.60;;;2.40;99.90;;;;;;5095910;28;20131;-78
2021/01/13 09:36:56;;;;;;;133.43;66.43;;;2.40;99.90;;;;;;5095586;28;20467;-78
2021/01/13 09:39:51;;;;;;;207.20;108.70;;;2.40;99.90;;;;;;5095431;28;20031;-80
2021/01/13 09:42:22;;;;;;;149.70;71.18;;;3.30;99.90;;;;;;5094462;28;20070;-80
2021/01/13 09:45:01;;;;;;;223.73;121.40;;;3.10;99.90;;;;;;5088203;28;20051;-78
2021/01/13 09:47:28;;;;;;;132.05;64.53;;;3.20;99.90;;;;;;5071975;28;20043;-81
2021/01/13 09:49:57;;;;;;;151.27;76.63;;;3.10;99.90;;;;;;5074428;28;20024;-80
2021/01/13 09:52:36;;;;;;;135.45;66.13;;;3.10;99.90;;;;;;5074617;28;20039;-79
2021/01/13 09:55:08;;;;;;;146.23;64.68;;;2.90;99.90;;;;;;5074724;28;20059;-80
2021/01/13 09:57:35;;;;;;;192.90;73.13;;;2.90;99.90;;;;;;5072874;28;20027;-75
2021/01/13 10:00:08;;;;;;;148.13;67.82;;;3.30;99.90;;;;;;5056165;28;20024;-76
2021/01/13 10:02:33;;;;;;;225.82;112.57;;;3.10;99.90;;;;;;5072981;28;20032;-76
2021/01/13 10:04:59;;;;;;;116.13;61.28;;;3.00;99.90;;;;;;5065952;28;20365;-77
2021/01/13 10:07:31;;;;;;;130.43;62.35;;;3.00;99.90;;;;;;5066357;28;20360;-77
2021/01/13 10:09:59;;;;;;;125.93;60.75;;;2.90;99.90;;;;;;5072228;28;20698;-76
2021/01/13 10:12:40;;;;;;;128.40;61.15;;;2.90;99.90;;;;;;5072162;28;20028;-77
2021/01/13 11:01:50;;;;;;;125.70;57.50;;;2.90;99.90;;;;;;4982939;28;20077;-81
2021/01/13 11:04:31;;;;;;;163.57;79.72;;;3.20;99.90;;;;;;4973720;28;20046;-85
2021/01/13 11:07:00;;;;;;;160.73;74.82;;;3.40;99.90;;;;;;4957648;28;20525;-83
2021/01/13 11:09:27;;;;;;;177.38;78.88;;;3.30;99.90;;;;;;4955836;28;20374;-83
2021/01/13 11:11:54;;;;;;;150.85;69.00;;;3.20;99.90;;;;;;4973868;28;20105;-82
2021/01/13 11:14:30;;;;;;;151.65;68.47;;;3.20;99.90;;;;;;4973753;28;20023;-82
2021/01/13 11:17:00;;;;;;;146.68;69.60;;;3.30;99.90;;;;;;4989796;28;20022;-83
2021/01/13 11:19:26;;;;;;;;;;;3.30;99.90;;;;;;4979880;28;20408;-82
2021/01/13 11:21:56;;;;;;;150.02;69.55;;;3.40;99.90;;;;;;4987793;28;19902;-83
2021/01/13 11:24:37;;;;;;;117.43;58.22;;;3.40;99.90;;;;;;4964345;28;20042;-81
2021/01/13 11:27:06;;;;;;;127.40;65.70;;;3.30;99.90;;;;;;4989876;28;20509;-82
2021/01/13 11:29:34;;;;;;;138.38;66.57;;;3.40;99.90;;;;;;4988604;28;20496;-83
2021/01/13 11:32:03;;;;;;;181.18;82.28;;;3.30;99.90;;;;;;4980504;28;20816;-79
2021/01/13 11:34:29;;;;;;;149.95;69.55;;;3.30;99.90;;;;;;4996340;28;20030;-80
2021/01/13 11:37:07;;;;;;;159.80;74.63;;;3.30;99.90;;;;;;4997751;28;20660;-79
2021/01/13 11:39:32;;;;;;;159.85;70.25;;;3.30;99.90;;;;;;4974031;28;20399;-80
2021/01/13 11:42:21;;;;;;;153.65;72.45;;;3.30;99.90;;;;;;4973960;28;20053;-80
2021/01/13 11:45:13;;;;;;;157.30;73.03;;;3.40;99.90;;;;;;4973441;28;20031;-80
2021/01/13 11:47:42;;;;;;;147.73;66.70;;;3.40;99.90;;;;;;4968930;28;20042;-80
2021/01/13 11:50:14;;;;;;;156.63;62.60;;;3.50;99.90;;;;;;4978762;28;20117;-81
2021/01/13 11:52:45;;;;;;;139.98;63.78;;;3.60;99.90;;;;;;4956038;28;20720;-82
2021/01/13 11:55:11;;;;;;;148.88;67.85;;;3.70;99.90;;;;;;4960850;28;20078;-81
2021/01/13 11:57:37;;;;;;;177.90;84.18;;;3.60;99.90;;;;;;4984272;28;20093;-80
2021/01/13 12:00:16;;;;;;;157.35;69.90;;;3.60;99.90;;;;;;4992227;28;20018;-80
2021/01/13 12:02:53;;;;;;;128.95;65.47;;;3.70;99.90;;;;;;4982495;28;20048;-80
2021/01/13 12:05:27;;;;;;;119.47;57.25;;;3.70;99.90;;;;;;4969160;28;20113;-80
2021/01/13 12:08:10;;;;;;;148.23;77.18;;;3.80;99.90;;;;;;4955707;28;20031;-80
2021/01/13 12:10:38;;;;;;;118.50;63.30;;;3.90;99.90;;;;;;4967831;28;20085;-80
2021/01/13 12:13:27;;;;;;;91.32;49.28;;;3.90;99.90;;;;;;4955650;28;20049;-80
2021/01/13 12:16:03;;;;;;;98.28;52.97;;;3.90;99.90;;;;;;4972382;28;20055;-80
2021/01/13 12:18:32;;;;;;;84.70;45.35;;;3.90;99.90;;;;;;4973034;28;20062;-80
2021/01/13 12:21:01;;;;;;;100.78;53.83;;;3.90;99.90;;;;;;4955197;28;20034;-83
2021/01/13 12:23:38;;;;;;;97.07;52.38;;;4.10;99.90;;;;;;4972177;28;20031;-79
2021/01/13 12:26:33;;;;;;;84.65;48.53;;;4.80;99.90;;;;;;4973066;28;20105;-79
2021/01/13 12:29:02;;;;;;;85.35;48.53;;;4.40;99.90;;;;;;4969005;28;20043;-80
2021/01/13 12:31:38;;;;;;;199.35;55.67;;;4.30;99.90;;;;;;4972686;28;20498;-79
2021/01/13 12:34:12;;;;;;;67.60;42.50;;;4.20;99.90;;;;;;4991926;28;20080;-80
2021/01/13 12:36:39;;;;;;;75.43;39.80;;;4.10;99.90;;;;;;4990937;28;20031;-81
2021/01/13 12:39:06;;;;;;;56.38;35.47;;;4.10;99.90;;;;;;4984812;28;20023;-80
2021/01/13 12:41:35;;;;;;;68.00;37.55;;;4.00;99.90;;;;;;4958206;28;20030;-80
2021/01/13 12:44:07;;;;;;;59.78;36.00;;;4.00;99.90;;;;;;4974502;28;20026;-80
2021/01/13 12:46:47;;;;;;;68.53;39.70;;;4.00;99.90;;;;;;4992265;28;20831;-80
2021/01/13 12:49:13;;;;;;;81.80;41.63;;;4.00;99.90;;;;;;4992638;28;20031;-79
2021/01/13 12:51:38;;;;;;;68.45;41.00;;;4.30;99.90;;;;;;4993392;28;20034;-80
2021/01/13 12:54:04;;;;;;;54.75;34.88;;;5.10;99.90;;;;;;4992980;28;20437;-81
2021/01/13 12:56:32;;;;;;;53.65;32.58;;;4.90;99.90;;;;;;4992850;28;20097;-80
2021/01/13 12:58:59;;;;;;;60.72;33.38;;;4.80;99.90;;;;;;4984272;28;20058;-80
2021/01/13 13:01:26;;;;;;;68.45;36.63;;;4.70;99.90;;;;;;4989961;28;20019;-80
2021/01/13 13:03:53;;;;;;;80.95;43.67;;;4.60;99.90;;;;;;4977852;28;20070;-80
2021/01/13 13:06:33;;;;;;;84.32;43.90;;;4.60;99.90;;;;;;4979806;28;20058;-80
2021/01/13 13:09:00;;;;;;;63.10;37.97;;;4.70;99.90;;;;;;4990904;28;20022;-80
2021/01/13 13:11:27;;;;;;;68.32;38.78;;;4.60;99.90;;;;;;4979091;28;20544;-79
2021/01/13 13:13:54;;;;;;;67.50;36.75;;;4.60;99.90;;;;;;4989518;28;20019;-80
2021/01/13 13:16:20;;;;;;;70.63;40.13;;;4.50;99.90;;;;;;4984916;28;20029;-79
2021/01/13 13:18:47;;;;;;;72.85;43.08;;;4.50;99.90;;;;;;4981711;28;20027;-79
2021/01/13 13:21:14;;;;;;;73.10;41.88;;;4.40;99.90;;;;;;4991471;28;20023;-79
2021/01/13 13:23:41;;;;;;;74.38;42.78;;;4.40;99.90;;;;;;4979984;28;20018;-79
2021/01/13 13:26:08;;;;;;;65.32;36.58;;;4.30;99.90;;;;;;4991927;28;20030;-79
2021/01/13 13:28:35;;;;;;;63.67;36.70;;;4.30;99.90;;;;;;4983453;28;20046;-79
2021/01/13 13:31:01;;;;;;;63.63;35.63;;;4.40;99.90;;;;;;4994002;28;20773;-79
2021/01/13 13:33:27;;;;;;;69.72;38.67;;;4.80;99.90;;;;;;5012180;28;20065;-80
2021/01/13 13:35:53;;;;;;;233.27;103.90;;;5.40;99.90;;;;;;4989747;28;20046;-80
2021/01/13 13:38:19;;;;;;;90.18;47.70;;;5.10;99.90;;;;;;4984939;28;20029;-80
2021/01/13 13:40:45;;;;;;;90.13;46.70;;;4.90;99.90;;;;;;4982415;28;20030;-80